BCS4LU LOWW-EPWA
Flight info
| Callsign | BCS4LU |
|---|---|
| Flight time | 0h 54m |
| Altitude | 33000 |
| Route | LEDVA3B/16 LEDVA DCT NETIR DCT LIGDI DCT KURON T709 KOTEK M866 LOGDA |
| Aircraft | A306/H-SDE3FGHIRWY/LB1 |
Departure
| Time | 2026-05-05 17:31 |
|---|---|
| Airport | Vienna International Airport (LOWW) |
Arrival
| Time | 2026-05-05 18:26 |
|---|---|
| Airport | Warsaw Chopin Airport (EPWA) |
| Time | Latitude | Longitude | Altitude | Speed | Heading |
|---|---|---|---|---|---|
| 2026-05-05 17:10 | 48.12085 | 16.55475 | 615 ft | 0 kts | 297° |
| 2026-05-05 17:25 | 48.12090 | 16.55414 | 626 ft | 7 kts | 248° |
| 2026-05-05 17:25 | 48.12021 | 16.55349 | 630 ft | 16 kts | 202° |
| 2026-05-05 17:26 | 48.11918 | 16.55351 | 630 ft | 17 kts | 134° |
| 2026-05-05 17:26 | 48.11865 | 16.55543 | 624 ft | 23 kts | 115° |
| 2026-05-05 17:26 | 48.11797 | 16.55749 | 626 ft | 21 kts | 117° |
| 2026-05-05 17:26 | 48.11734 | 16.55944 | 628 ft | 21 kts | 116° |
| 2026-05-05 17:27 | 48.11672 | 16.56133 | 628 ft | 19 kts | 116° |
| 2026-05-05 17:27 | 48.11615 | 16.56298 | 626 ft | 17 kts | 118° |
| 2026-05-05 17:27 | 48.11563 | 16.56463 | 623 ft | 20 kts | 114° |
| 2026-05-05 17:27 | 48.11495 | 16.56677 | 624 ft | 25 kts | 116° |
| 2026-05-05 17:28 | 48.11417 | 16.56917 | 623 ft | 25 kts | 116° |
| 2026-05-05 17:28 | 48.11346 | 16.57137 | 627 ft | 22 kts | 116° |
| 2026-05-05 17:28 | 48.11324 | 16.57336 | 627 ft | 19 kts | 50° |
| 2026-05-05 17:28 | 48.11432 | 16.57422 | 626 ft | 17 kts | 25° |
| 2026-05-05 17:29 | 48.11546 | 16.57460 | 629 ft | 19 kts | 348° |
| 2026-05-05 17:29 | 48.11669 | 16.57403 | 622 ft | 18 kts | 345° |
| 2026-05-05 17:29 | 48.11785 | 16.57356 | 621 ft | 17 kts | 345° |
| 2026-05-05 17:29 | 48.11923 | 16.57301 | 628 ft | 23 kts | 353° |
| 2026-05-05 17:30 | 48.12013 | 16.57448 | 623 ft | 20 kts | 81° |
| 2026-05-05 17:30 | 48.11989 | 16.57642 | 628 ft | 18 kts | 106° |
| 2026-05-05 17:30 | 48.11947 | 16.57809 | 624 ft | 16 kts | 131° |
| 2026-05-05 17:30 | 48.11825 | 16.57883 | 623 ft | 34 kts | 164° |
| 2026-05-05 17:31 | 48.11376 | 16.58072 | 618 ft | 97 kts | 164° |
| 2026-05-05 17:31 | 48.10552 | 16.58419 | 640 ft | 147 kts | 165° |
| 2026-05-05 17:31 | 48.09511 | 16.58850 | 1136 ft | 161 kts | 167° |
| 2026-05-05 17:31 | 48.08441 | 16.59269 | 2026 ft | 159 kts | 169° |
| 2026-05-05 17:32 | 48.07343 | 16.59705 | 2733 ft | 171 kts | 169° |
| 2026-05-05 17:32 | 48.06202 | 16.60406 | 3472 ft | 184 kts | 158° |
| 2026-05-05 17:32 | 48.05182 | 16.61723 | 4189 ft | 207 kts | 135° |
| 2026-05-05 17:32 | 48.04562 | 16.63753 | 4976 ft | 227 kts | 108° |
| 2026-05-05 17:33 | 48.04640 | 16.66166 | 5863 ft | 242 kts | 78° |
| 2026-05-05 17:33 | 48.05536 | 16.68364 | 6701 ft | 258 kts | 45° |
| 2026-05-05 17:33 | 48.06982 | 16.70069 | 7448 ft | 277 kts | 32° |
| 2026-05-05 17:33 | 48.08834 | 16.71152 | 8060 ft | 295 kts | 10° |
| 2026-05-05 17:34 | 48.10891 | 16.71596 | 8884 ft | 304 kts | 5° |
| 2026-05-05 17:34 | 48.13019 | 16.71901 | 9716 ft | 310 kts | 3° |
| 2026-05-05 17:34 | 48.15198 | 16.72172 | 10429 ft | 321 kts | 2° |
| 2026-05-05 17:34 | 48.17484 | 16.72442 | 10815 ft | 340 kts | 3° |
| 2026-05-05 17:35 | 48.19918 | 16.72726 | 11127 ft | 359 kts | 2° |
| 2026-05-05 17:35 | 48.22472 | 16.73022 | 11403 ft | 378 kts | 3° |
| 2026-05-05 17:35 | 48.25143 | 16.73331 | 11815 ft | 390 kts | 3° |
| 2026-05-05 17:35 | 48.27874 | 16.73650 | 12398 ft | 397 kts | 2° |
| 2026-05-05 17:36 | 48.30656 | 16.73974 | 12901 ft | 406 kts | 2° |
| 2026-05-05 17:36 | 48.33471 | 16.74302 | 13654 ft | 405 kts | 3° |
| 2026-05-05 17:36 | 48.36272 | 16.74629 | 14337 ft | 406 kts | 3° |
| 2026-05-05 17:36 | 48.38147 | 16.74847 | 14642 ft | 411 kts | 2° |
| 2026-05-05 17:37 | 48.41019 | 16.75181 | 15197 ft | 415 kts | 2° |
| 2026-05-05 17:37 | 48.43898 | 16.75518 | 15915 ft | 415 kts | 2° |
| 2026-05-05 17:37 | 48.46793 | 16.75855 | 16404 ft | 421 kts | 2° |
| 2026-05-05 17:37 | 48.49735 | 16.76197 | 16979 ft | 425 kts | 2° |
| 2026-05-05 17:38 | 48.52683 | 16.76542 | 17664 ft | 425 kts | 2° |
| 2026-05-05 17:38 | 48.55638 | 16.76889 | 18249 ft | 428 kts | 2° |
| 2026-05-05 17:38 | 48.58621 | 16.77239 | 18731 ft | 431 kts | 2° |
| 2026-05-05 17:38 | 48.61617 | 16.77591 | 19281 ft | 432 kts | 2° |
| 2026-05-05 17:39 | 48.64635 | 16.77946 | 19674 ft | 438 kts | 2° |
| 2026-05-05 17:39 | 48.67676 | 16.78459 | 20111 ft | 442 kts | 8° |
| 2026-05-05 17:39 | 48.70640 | 16.79704 | 20669 ft | 445 kts | 19° |
| 2026-05-05 17:39 | 48.73419 | 16.81839 | 20981 ft | 453 kts | 32° |
| 2026-05-05 17:40 | 48.75853 | 16.84867 | 21583 ft | 453 kts | 44° |
| 2026-05-05 17:40 | 48.77983 | 16.88403 | 21936 ft | 458 kts | 49° |
| 2026-05-05 17:40 | 48.80000 | 16.92156 | 22452 ft | 458 kts | 51° |
| 2026-05-05 17:40 | 48.81958 | 16.95993 | 22793 ft | 463 kts | 52° |
| 2026-05-05 17:41 | 48.83922 | 16.99911 | 22988 ft | 470 kts | 52° |
| 2026-05-05 17:41 | 48.85925 | 17.03902 | 23003 ft | 481 kts | 52° |
| 2026-05-05 17:41 | 48.87981 | 17.07965 | 23018 ft | 490 kts | 52° |
| 2026-05-05 17:41 | 48.90089 | 17.12102 | 23020 ft | 499 kts | 52° |
| 2026-05-05 17:42 | 48.92225 | 17.16271 | 23004 ft | 497 kts | 52° |
| 2026-05-05 17:42 | 48.94327 | 17.20364 | 23204 ft | 485 kts | 51° |
| 2026-05-05 17:42 | 48.96374 | 17.24352 | 23547 ft | 472 kts | 51° |
| 2026-05-05 17:42 | 48.98383 | 17.28269 | 23519 ft | 469 kts | 51° |
| 2026-05-05 17:43 | 49.00384 | 17.32176 | 23538 ft | 465 kts | 51° |
| 2026-05-05 17:43 | 49.02376 | 17.36072 | 23369 ft | 467 kts | 51° |
| 2026-05-05 17:43 | 49.04364 | 17.39968 | 23382 ft | 464 kts | 51° |
| 2026-05-05 17:43 | 49.06344 | 17.43854 | 23199 ft | 466 kts | 52° |
| 2026-05-05 17:44 | 49.08321 | 17.47742 | 23224 ft | 462 kts | 52° |
| 2026-05-05 17:44 | 49.10271 | 17.51583 | 23550 ft | 452 kts | 52° |
| 2026-05-05 17:44 | 49.12164 | 17.55319 | 23994 ft | 439 kts | 52° |
| 2026-05-05 17:44 | 49.14027 | 17.58999 | 24127 ft | 438 kts | 52° |
| 2026-05-05 17:45 | 49.15882 | 17.62667 | 24274 ft | 435 kts | 52° |
| 2026-05-05 17:45 | 49.17734 | 17.66334 | 24304 ft | 436 kts | 52° |
| 2026-05-05 17:45 | 49.19585 | 17.70005 | 24433 ft | 435 kts | 52° |
| 2026-05-05 17:45 | 49.21430 | 17.73668 | 24447 ft | 436 kts | 52° |
| 2026-05-05 17:46 | 49.23280 | 17.77346 | 24516 ft | 436 kts | 52° |
| 2026-05-05 17:46 | 49.25125 | 17.81020 | 24546 ft | 437 kts | 52° |
| 2026-05-05 17:46 | 49.26978 | 17.84714 | 24589 ft | 437 kts | 52° |
| 2026-05-05 17:46 | 49.28824 | 17.88399 | 24707 ft | 436 kts | 52° |
| 2026-05-05 17:47 | 49.30671 | 17.92093 | 24709 ft | 437 kts | 52° |
| 2026-05-05 17:47 | 49.32511 | 17.95777 | 24797 ft | 436 kts | 52° |
| 2026-05-05 17:47 | 49.34354 | 17.99473 | 24790 ft | 437 kts | 52° |
| 2026-05-05 17:47 | 49.36200 | 18.03179 | 24873 ft | 436 kts | 52° |
| 2026-05-05 17:48 | 49.38044 | 18.06889 | 24844 ft | 438 kts | 52° |
| 2026-05-05 17:48 | 49.39889 | 18.10603 | 24941 ft | 437 kts | 52° |
| 2026-05-05 17:48 | 49.41734 | 18.14323 | 24929 ft | 439 kts | 52° |
| 2026-05-05 17:48 | 49.43554 | 18.17997 | 25014 ft | 437 kts | 52° |
| 2026-05-05 17:49 | 49.45409 | 18.21749 | 25256 ft | 435 kts | 52° |
| 2026-05-05 17:49 | 49.47245 | 18.25467 | 25514 ft | 435 kts | 52° |
| 2026-05-05 17:49 | 49.49046 | 18.29119 | 25821 ft | 435 kts | 52° |
| 2026-05-05 17:49 | 49.50871 | 18.32825 | 26266 ft | 434 kts | 52° |
| 2026-05-05 17:50 | 49.52690 | 18.36521 | 26785 ft | 433 kts | 52° |
| 2026-05-05 17:50 | 49.54503 | 18.40212 | 27299 ft | 431 kts | 52° |
| 2026-05-05 17:50 | 49.56306 | 18.43889 | 27818 ft | 429 kts | 52° |
| 2026-05-05 17:50 | 49.58098 | 18.47548 | 28353 ft | 428 kts | 52° |
| 2026-05-05 17:51 | 49.59886 | 18.51203 | 28894 ft | 426 kts | 51° |
| 2026-05-05 17:51 | 49.61661 | 18.54838 | 29455 ft | 424 kts | 52° |
| 2026-05-05 17:51 | 49.63427 | 18.58458 | 29999 ft | 421 kts | 52° |
| 2026-05-05 17:51 | 49.65183 | 18.62064 | 30476 ft | 419 kts | 51° |
| 2026-05-05 17:52 | 49.66927 | 18.65649 | 30968 ft | 416 kts | 52° |
| 2026-05-05 17:52 | 49.68689 | 18.69175 | 31462 ft | 413 kts | 48° |
| 2026-05-05 17:52 | 49.70669 | 18.72382 | 31868 ft | 412 kts | 42° |
| 2026-05-05 17:52 | 49.72768 | 18.75431 | 32132 ft | 416 kts | 41° |
| 2026-05-05 17:53 | 49.74916 | 18.78441 | 32402 ft | 417 kts | 40° |
| 2026-05-05 17:53 | 49.77081 | 18.81419 | 32656 ft | 417 kts | 39° |
| 2026-05-05 17:53 | 49.79256 | 18.84389 | 32800 ft | 417 kts | 40° |
| 2026-05-05 17:54 | 49.83591 | 18.90318 | 32815 ft | 416 kts | 40° |
| 2026-05-05 17:54 | 49.87990 | 18.96373 | 32830 ft | 431 kts | 40° |
| 2026-05-05 17:55 | 49.92542 | 19.02672 | 32813 ft | 446 kts | 40° |
| 2026-05-05 17:55 | 49.97223 | 19.09178 | 32816 ft | 455 kts | 40° |
| 2026-05-05 17:56 | 50.01908 | 19.15708 | 32823 ft | 455 kts | 40° |
| 2026-05-05 17:56 | 50.06637 | 19.22318 | 32818 ft | 454 kts | 40° |
| 2026-05-05 17:57 | 50.11327 | 19.28888 | 32830 ft | 453 kts | 41° |
| 2026-05-05 17:57 | 50.16013 | 19.35470 | 32822 ft | 453 kts | 41° |
| 2026-05-05 17:58 | 50.20669 | 19.42026 | 32815 ft | 454 kts | 41° |
| 2026-05-05 17:58 | 50.25352 | 19.48641 | 32818 ft | 454 kts | 41° |
| 2026-05-05 17:59 | 50.30013 | 19.55418 | 32821 ft | 455 kts | 46° |
| 2026-05-05 17:59 | 50.34242 | 19.62698 | 32818 ft | 455 kts | 47° |
| 2026-05-05 18:00 | 50.38424 | 19.70144 | 32818 ft | 455 kts | 47° |
| 2026-05-05 18:00 | 50.42583 | 19.77617 | 32819 ft | 455 kts | 47° |
| 2026-05-05 18:01 | 50.46749 | 19.85109 | 32819 ft | 455 kts | 48° |
| 2026-05-05 18:01 | 50.50912 | 19.92603 | 32815 ft | 456 kts | 48° |
| 2026-05-05 18:02 | 50.55094 | 20.00149 | 32820 ft | 462 kts | 48° |
| 2026-05-05 18:02 | 50.59374 | 20.07861 | 32809 ft | 472 kts | 46° |
| 2026-05-05 18:03 | 50.64446 | 20.14315 | 32807 ft | 469 kts | 28° |
| 2026-05-05 18:03 | 50.70488 | 20.18009 | 32810 ft | 465 kts | 15° |
| 2026-05-05 18:04 | 50.76706 | 20.20872 | 32808 ft | 466 kts | 14° |
| 2026-05-05 18:04 | 50.82899 | 20.23710 | 32602 ft | 456 kts | 14° |
| 2026-05-05 18:04 | 50.85907 | 20.25095 | 32368 ft | 443 kts | 14° |
| 2026-05-05 18:05 | 50.88853 | 20.26452 | 31708 ft | 441 kts | 14° |
| 2026-05-05 18:05 | 50.91798 | 20.27810 | 31066 ft | 439 kts | 14° |
| 2026-05-05 18:05 | 50.94721 | 20.29160 | 30490 ft | 437 kts | 14° |
| 2026-05-05 18:05 | 50.97630 | 20.30505 | 29915 ft | 434 kts | 14° |
| 2026-05-05 18:06 | 51.00517 | 20.31842 | 29258 ft | 432 kts | 14° |
| 2026-05-05 18:06 | 51.02426 | 20.32727 | 28854 ft | 429 kts | 14° |
| 2026-05-05 18:06 | 51.06202 | 20.34480 | 28083 ft | 425 kts | 14° |
| 2026-05-05 18:06 | 51.09025 | 20.35794 | 27538 ft | 421 kts | 14° |
| 2026-05-05 18:07 | 51.11855 | 20.37112 | 27075 ft | 415 kts | 14° |
| 2026-05-05 18:07 | 51.14559 | 20.38374 | 26842 ft | 405 kts | 14° |
| 2026-05-05 18:07 | 51.17229 | 20.39621 | 26645 ft | 395 kts | 14° |
| 2026-05-05 18:07 | 51.19833 | 20.40838 | 26461 ft | 386 kts | 14° |
| 2026-05-05 18:08 | 51.22377 | 20.42029 | 26288 ft | 377 kts | 14° |
| 2026-05-05 18:08 | 51.24864 | 20.43194 | 26103 ft | 369 kts | 14° |
| 2026-05-05 18:08 | 51.27292 | 20.44334 | 25605 ft | 362 kts | 14° |
| 2026-05-05 18:08 | 51.29699 | 20.45463 | 24994 ft | 359 kts | 14° |
| 2026-05-05 18:09 | 51.32084 | 20.46582 | 24394 ft | 356 kts | 14° |
| 2026-05-05 18:09 | 51.34451 | 20.47695 | 23801 ft | 354 kts | 14° |
| 2026-05-05 18:09 | 51.36808 | 20.48804 | 23185 ft | 351 kts | 14° |
| 2026-05-05 18:09 | 51.39138 | 20.49903 | 22501 ft | 348 kts | 14° |
| 2026-05-05 18:10 | 51.41459 | 20.50998 | 21831 ft | 346 kts | 14° |
| 2026-05-05 18:10 | 51.43756 | 20.52084 | 21183 ft | 343 kts | 14° |
| 2026-05-05 18:10 | 51.46039 | 20.53164 | 20547 ft | 341 kts | 14° |
| 2026-05-05 18:10 | 51.48302 | 20.54235 | 19927 ft | 338 kts | 14° |
| 2026-05-05 18:11 | 51.50553 | 20.55302 | 19312 ft | 336 kts | 14° |
| 2026-05-05 18:11 | 51.52784 | 20.56361 | 18715 ft | 334 kts | 14° |
| 2026-05-05 18:11 | 51.55001 | 20.57414 | 18132 ft | 331 kts | 14° |
| 2026-05-05 18:11 | 51.57205 | 20.58462 | 17464 ft | 329 kts | 14° |
| 2026-05-05 18:12 | 51.59393 | 20.59503 | 16814 ft | 327 kts | 14° |
| 2026-05-05 18:12 | 51.61567 | 20.60539 | 16171 ft | 325 kts | 14° |
| 2026-05-05 18:12 | 51.63731 | 20.61570 | 15642 ft | 325 kts | 14° |
| 2026-05-05 18:12 | 51.65891 | 20.62601 | 15290 ft | 323 kts | 14° |
| 2026-05-05 18:13 | 51.68039 | 20.63627 | 14931 ft | 321 kts | 13° |
| 2026-05-05 18:13 | 51.70172 | 20.64647 | 14566 ft | 320 kts | 13° |
| 2026-05-05 18:13 | 51.72303 | 20.65668 | 14209 ft | 318 kts | 13° |
| 2026-05-05 18:13 | 51.74422 | 20.66683 | 13853 ft | 317 kts | 14° |
| 2026-05-05 18:14 | 51.76471 | 20.68016 | 13466 ft | 320 kts | 28° |
| 2026-05-05 18:14 | 51.78188 | 20.70278 | 13056 ft | 321 kts | 50° |
| 2026-05-05 18:14 | 51.79302 | 20.73362 | 12697 ft | 317 kts | 67° |
| 2026-05-05 18:14 | 51.80133 | 20.76644 | 12335 ft | 315 kts | 70° |
| 2026-05-05 18:15 | 51.80906 | 20.79918 | 12119 ft | 307 kts | 71° |
| 2026-05-05 18:15 | 51.81642 | 20.83067 | 11895 ft | 293 kts | 71° |
| 2026-05-05 18:15 | 51.82347 | 20.86090 | 11639 ft | 282 kts | 71° |
| 2026-05-05 18:15 | 51.83029 | 20.89021 | 11259 ft | 276 kts | 71° |
| 2026-05-05 18:16 | 51.83700 | 20.91913 | 10841 ft | 273 kts | 71° |
| 2026-05-05 18:16 | 51.84366 | 20.94780 | 10402 ft | 272 kts | 71° |
| 2026-05-05 18:16 | 51.85035 | 20.97667 | 9829 ft | 276 kts | 71° |
| 2026-05-05 18:16 | 51.85714 | 21.00597 | 9232 ft | 279 kts | 71° |
| 2026-05-05 18:17 | 51.86395 | 21.03534 | 8721 ft | 278 kts | 71° |
| 2026-05-05 18:17 | 51.87085 | 21.06436 | 8246 ft | 272 kts | 68° |
| 2026-05-05 18:17 | 51.87837 | 21.09183 | 7766 ft | 262 kts | 75° |
| 2026-05-05 18:17 | 51.88056 | 21.12047 | 7271 ft | 254 kts | 94° |
| 2026-05-05 18:18 | 51.88004 | 21.14876 | 6762 ft | 251 kts | 96° |
| 2026-05-05 18:18 | 51.87926 | 21.17688 | 6166 ft | 249 kts | 96° |
| 2026-05-05 18:18 | 51.88192 | 21.20407 | 5539 ft | 252 kts | 71° |
| 2026-05-05 18:18 | 51.89036 | 21.22922 | 4943 ft | 250 kts | 58° |
| 2026-05-05 18:19 | 51.90000 | 21.25210 | 4630 ft | 250 kts | 53° |
| 2026-05-05 18:19 | 51.91350 | 21.26924 | 4370 ft | 248 kts | 21° |
| 2026-05-05 18:19 | 51.93009 | 21.27318 | 4118 ft | 240 kts | 348° |
| 2026-05-05 18:19 | 51.94500 | 21.26294 | 4013 ft | 230 kts | 315° |
| 2026-05-05 18:20 | 51.95510 | 21.24360 | 3994 ft | 219 kts | 299° |
| 2026-05-05 18:20 | 51.96057 | 21.23007 | 3885 ft | 209 kts | 297° |
| 2026-05-05 18:20 | 51.97062 | 21.20442 | 3551 ft | 199 kts | 297° |
| 2026-05-05 18:20 | 51.97794 | 21.18569 | 3308 ft | 194 kts | 297° |
| 2026-05-05 18:21 | 51.98523 | 21.16712 | 3105 ft | 198 kts | 297° |
| 2026-05-05 18:21 | 51.99270 | 21.14805 | 3004 ft | 202 kts | 297° |
| 2026-05-05 18:21 | 52.00025 | 21.12872 | 2999 ft | 203 kts | 297° |
| 2026-05-05 18:21 | 52.00830 | 21.10981 | 2993 ft | 205 kts | 305° |
| 2026-05-05 18:22 | 52.01929 | 21.09470 | 2991 ft | 209 kts | 323° |
| 2026-05-05 18:22 | 52.03197 | 21.08367 | 2988 ft | 204 kts | 328° |
| 2026-05-05 18:22 | 52.04444 | 21.07302 | 2798 ft | 202 kts | 327° |
| 2026-05-05 18:22 | 52.05678 | 21.06215 | 2523 ft | 201 kts | 327° |
| 2026-05-05 18:23 | 52.06911 | 21.05138 | 2263 ft | 202 kts | 328° |
| 2026-05-05 18:23 | 52.07728 | 21.04429 | 2087 ft | 199 kts | 328° |
| 2026-05-05 18:23 | 52.08899 | 21.03411 | 1828 ft | 184 kts | 328° |
| 2026-05-05 18:23 | 52.09991 | 21.02457 | 1593 ft | 174 kts | 328° |
| 2026-05-05 18:24 | 52.11013 | 21.01566 | 1378 ft | 159 kts | 327° |
| 2026-05-05 18:24 | 52.11950 | 21.00748 | 1171 ft | 151 kts | 328° |
| 2026-05-05 18:24 | 52.12864 | 20.99946 | 960 ft | 148 kts | 329° |
| 2026-05-05 18:24 | 52.13770 | 20.99163 | 744 ft | 148 kts | 330° |
| 2026-05-05 18:25 | 52.14678 | 20.98370 | 542 ft | 148 kts | 329° |
| 2026-05-05 18:25 | 52.15279 | 20.97847 | 410 ft | 147 kts | 330° |
| 2026-05-05 18:25 | 52.16406 | 20.96859 | 351 ft | 107 kts | 331° |
| 2026-05-05 18:25 | 52.16932 | 20.96398 | 349 ft | 69 kts | 332° |
| 2026-05-05 18:26 | 52.17221 | 20.96236 | 351 ft | 38 kts | 358° |
| 2026-05-05 18:26 | 52.17398 | 20.96310 | 353 ft | 20 kts | 72° |
| 2026-05-05 18:26 | 52.17326 | 20.96454 | 353 ft | 17 kts | 149° |
| 2026-05-05 18:26 | 52.17230 | 20.96538 | 353 ft | 15 kts | 152° |
| 2026-05-05 18:27 | 52.17144 | 20.96612 | 350 ft | 13 kts | 152° |
| 2026-05-05 18:27 | 52.17065 | 20.96680 | 349 ft | 15 kts | 152° |
| 2026-05-05 18:27 | 52.16959 | 20.96773 | 354 ft | 17 kts | 152° |
| 2026-05-05 18:27 | 52.16856 | 20.96863 | 351 ft | 17 kts | 152° |
| 2026-05-05 18:28 | 52.16619 | 20.97069 | 353 ft | 21 kts | 152° |
| 2026-05-05 18:28 | 52.16494 | 20.97177 | 346 ft | 20 kts | 152° |
| 2026-05-05 18:28 | 52.16355 | 20.97301 | 353 ft | 27 kts | 151° |
| 2026-05-05 18:29 | 52.16171 | 20.97461 | 349 ft | 30 kts | 152° |
| 2026-05-05 18:29 | 52.16002 | 20.97606 | 356 ft | 26 kts | 152° |
| 2026-05-05 18:29 | 52.15849 | 20.97741 | 351 ft | 24 kts | 151° |
| 2026-05-05 18:29 | 52.15703 | 20.97869 | 350 ft | 23 kts | 152° |
| 2026-05-05 18:30 | 52.15564 | 20.97990 | 355 ft | 22 kts | 151° |
| 2026-05-05 18:30 | 52.15447 | 20.98100 | 356 ft | 13 kts | 135° |
| 2026-05-05 18:30 | 52.15464 | 20.98216 | 354 ft | 10 kts | 60° |
| 2026-05-05 18:30 | 52.15470 | 20.98234 | 356 ft | 0 kts | 61° |